Terminal Aerodrome Forecast
Issued by NWS

Home | Current Version | Previous Version | Text Only | Print | Product List | Glossary On
Versions: 1 2 3 4 5 6 7 8 9 10 11 12 13
960
FTUS44 KLZK 291726
TAFHOT
TAF
KHOT 291726Z 2918/3018 08006KT P6SM SCT050 BKN250
     FM300000 VRB03KT P6SM SCT250
      TEMPO 3009/3013 4SM BR
     FM301500 09005KT P6SM SCT040 BKN060=

USA.gov is the U.S. government's official web portal to all federal, state and local government web resources and services.